sensor_id;sensor_type;location;lat;lon;timestamp;P1;P2;P0
72509;PMS5003;60532;56.114;40.350;2022-09-09T00:02:00;5.00;5.00;2.00
72509;PMS5003;60532;56.114;40.350;2022-09-09T00:04:13;5.00;4.50;2.50
72509;PMS5003;60532;56.114;40.350;2022-09-09T00:06:21;4.00;4.00;1.00
72509;PMS5003;60532;56.114;40.350;2022-09-09T00:08:24;4.00;4.00;2.00
72509;PMS5003;60532;56.114;40.350;2022-09-09T00:12:34;2.75;2.00;1.25
72509;PMS5003;60532;56.114;40.350;2022-09-09T00:16:41;5.00;5.00;2.00
72509;PMS5003;60532;56.114;40.350;2022-09-09T00:20:55;5.25;4.50;1.75
72509;PMS5003;60532;56.114;40.350;2022-09-09T00:23:00;2.50;2.50;1.50
72509;PMS5003;60532;56.114;40.350;2022-09-09T00:25:14;4.50;4.50;2.00
72509;PMS5003;60532;56.114;40.350;2022-09-09T00:27:28;7.00;4.75;1.25
72509;PMS5003;60532;56.114;40.350;2022-09-09T00:29:33;5.00;5.00;2.00
72509;PMS5003;60532;56.114;40.350;2022-09-09T00:31:36;4.75;4.00;1.00
72509;PMS5003;60532;56.114;40.350;2022-09-09T00:33:39;3.00;3.00;1.75
72509;PMS5003;60532;56.114;40.350;2022-09-09T00:35:44;5.00;5.00;1.00
72509;PMS5003;60532;56.114;40.350;2022-09-09T00:37:46;1.75;1.75;1.00
72509;PMS5003;60532;56.114;40.350;2022-09-09T00:39:49;5.00;3.00;1.50
72509;PMS5003;60532;56.114;40.350;2022-09-09T00:42:05;4.75;2.00;1.75
72509;PMS5003;60532;56.114;40.350;2022-09-09T00:48:14;7.00;4.00;1.00
72509;PMS5003;60532;56.114;40.350;2022-09-09T00:56:46;4.25;4.25;1.25
72509;PMS5003;60532;56.114;40.350;2022-09-09T01:01:04;5.00;2.50;0.75
72509;PMS5003;60532;56.114;40.350;2022-09-09T01:03:19;5.75;5.00;1.00
72509;PMS5003;60532;56.114;40.350;2022-09-09T01:07:22;4.67;3.33;2.00
72509;PMS5003;60532;56.114;40.350;2022-09-09T01:11:28;4.00;4.00;2.00
72509;PMS5003;60532;56.114;40.350;2022-09-09T01:13:33;1.00;1.00;0.75
72509;PMS5003;60532;56.114;40.350;2022-09-09T01:15:34;2.00;2.00;1.00
72509;PMS5003;60532;56.114;40.350;2022-09-09T01:21:50;3.50;3.50;1.25
72509;PMS5003;60532;56.114;40.350;2022-09-09T01:28:19;2.00;2.00;1.00
72509;PMS5003;60532;56.114;40.350;2022-09-09T01:30:22;2.50;2.00;1.00
72509;PMS5003;60532;56.114;40.350;2022-09-09T01:34:38;3.00;3.00;1.00
72509;PMS5003;60532;56.114;40.350;2022-09-09T01:36:44;3.00;3.00;1.00
72509;PMS5003;60532;56.114;40.350;2022-09-09T01:38:46;4.75;3.50;1.00
72509;PMS5003;60532;56.114;40.350;2022-09-09T01:40:46;13.33;4.67;1.00
72509;PMS5003;60532;56.114;40.350;2022-09-09T01:42:47;4.67;1.33;1.00
72509;PMS5003;60532;56.114;40.350;2022-09-09T01:44:48;6.33;4.67;1.33
72509;PMS5003;60532;56.114;40.350;2022-09-09T01:46:48;4.33;2.00;1.00
72509;PMS5003;60532;56.114;40.350;2022-09-09T01:48:51;4.00;4.00;1.00
72509;PMS5003;60532;56.114;40.350;2022-09-09T01:50:52;3.00;3.00;0.00
72509;PMS5003;60532;56.114;40.350;2022-09-09T01:52:55;4.00;4.00;1.00
72509;PMS5003;60532;56.114;40.350;2022-09-09T01:54:56;9.00;4.00;0.00
72509;PMS5003;60532;56.114;40.350;2022-09-09T01:57:17;2.00;2.00;1.00
72509;PMS5003;60532;56.114;40.350;2022-09-09T01:59:33;1.75;1.75;1.00
72509;PMS5003;60532;56.114;40.350;2022-09-09T02:03:57;3.00;3.00;1.00
72509;PMS5003;60532;56.114;40.350;2022-09-09T02:06:40;4.75;3.00;1.00
72509;PMS5003;60532;56.114;40.350;2022-09-09T02:08:23;4.25;2.00;1.00
72509;PMS5003;60532;56.114;40.350;2022-09-09T02:12:45;5.50;4.25;1.00
72509;PMS5003;60532;56.114;40.350;2022-09-09T02:14:49;7.50;5.00;1.00
72509;PMS5003;60532;56.114;40.350;2022-09-09T02:16:52;4.75;3.00;1.00
72509;PMS5003;60532;56.114;40.350;2022-09-09T02:21:12;5.75;4.25;1.75
72509;PMS5003;60532;56.114;40.350;2022-09-09T02:23:13;3.00;3.00;0.75
72509;PMS5003;60532;56.114;40.350;2022-09-09T02:25:15;3.50;1.50;1.00
72509;PMS5003;60532;56.114;40.350;2022-09-09T02:27:17;4.00;1.75;1.00
72509;PMS5003;60532;56.114;40.350;2022-09-09T02:29:30;1.50;1.50;1.00
72509;PMS5003;60532;56.114;40.350;2022-09-09T02:31:31;4.25;4.25;1.00
72509;PMS5003;60532;56.114;40.350;2022-09-09T02:33:37;4.75;2.50;0.75
72509;PMS5003;60532;56.114;40.350;2022-09-09T02:35:40;3.00;3.00;1.00
72509;PMS5003;60532;56.114;40.350;2022-09-09T02:37:42;2.00;2.00;1.00
72509;PMS5003;60532;56.114;40.350;2022-09-09T02:39:46;6.00;3.50;1.75
72509;PMS5003;60532;56.114;40.350;2022-09-09T02:41:47;2.00;2.00;1.00
72509;PMS5003;60532;56.114;40.350;2022-09-09T02:43:47;1.67;1.33;0.33
72509;PMS5003;60532;56.114;40.350;2022-09-09T02:45:50;2.00;2.00;1.00
72509;PMS5003;60532;56.114;40.350;2022-09-09T02:50:02;5.75;4.25;1.50
72509;PMS5003;60532;56.114;40.350;2022-09-09T02:52:05;4.00;1.25;1.00
72509;PMS5003;60532;56.114;40.350;2022-09-09T02:56:17;8.00;6.33;1.00
72509;PMS5003;60532;56.114;40.350;2022-09-09T02:58:18;3.25;2.00;1.00
72509;PMS5003;60532;56.114;40.350;2022-09-09T03:00:23;4.00;2.67;1.00
72509;PMS5003;60532;56.114;40.350;2022-09-09T03:02:24;5.00;5.00;1.00
72509;PMS5003;60532;56.114;40.350;2022-09-09T03:04:25;1.00;1.00;0.00
72509;PMS5003;60532;56.114;40.350;2022-09-09T03:06:25;1.00;1.00;1.00
72509;PMS5003;60532;56.114;40.350;2022-09-09T03:08:27;4.00;3.50;1.50
72509;PMS5003;60532;56.114;40.350;2022-09-09T03:10:28;3.33;3.33;1.00
72509;PMS5003;60532;56.114;40.350;2022-09-09T03:12:28;5.33;4.67;1.00
72509;PMS5003;60532;56.114;40.350;2022-09-09T03:14:29;1.00;1.00;0.00
72509;PMS5003;60532;56.114;40.350;2022-09-09T03:16:30;5.25;3.00;1.00
72509;PMS5003;60532;56.114;40.350;2022-09-09T03:18:33;1.00;1.00;1.00
72509;PMS5003;60532;56.114;40.350;2022-09-09T03:20:34;5.00;4.00;1.00
72509;PMS5003;60532;56.114;40.350;2022-09-09T03:22:35;5.67;2.00;1.00
72509;PMS5003;60532;56.114;40.350;2022-09-09T03:24:35;6.00;2.00;1.00
72509;PMS5003;60532;56.114;40.350;2022-09-09T03:26:36;2.00;2.00;1.00
72509;PMS5003;60532;56.114;40.350;2022-09-09T03:28:37;1.80;1.80;1.00
72509;PMS5003;60532;56.114;40.350;2022-09-09T03:30:38;3.50;1.75;0.00
72509;PMS5003;60532;56.114;40.350;2022-09-09T03:32:38;2.00;2.00;1.00
72509;PMS5003;60532;56.114;40.350;2022-09-09T03:34:40;5.00;3.75;1.00
72509;PMS5003;60532;56.114;40.350;2022-09-09T03:36:40;4.75;1.75;1.00
72509;PMS5003;60532;56.114;40.350;2022-09-09T03:38:44;2.80;2.00;1.00
72509;PMS5003;60532;56.114;40.350;2022-09-09T03:40:51;2.00;2.00;1.00
72509;PMS5003;60532;56.114;40.350;2022-09-09T03:42:55;4.00;2.50;1.00
72509;PMS5003;60532;56.114;40.350;2022-09-09T03:44:56;5.00;3.50;1.25
72509;PMS5003;60532;56.114;40.350;2022-09-09T03:46:58;4.40;3.20;1.00
72509;PMS5003;60532;56.114;40.350;2022-09-09T03:49:00;5.60;3.60;1.80
72509;PMS5003;60532;56.114;40.350;2022-09-09T03:51:01;2.00;1.20;1.00
72509;PMS5003;60532;56.114;40.350;2022-09-09T03:53:03;1.00;1.00;0.00
72509;PMS5003;60532;56.114;40.350;2022-09-09T03:55:04;3.00;2.00;1.00
72509;PMS5003;60532;56.114;40.350;2022-09-09T03:57:05;4.20;4.00;0.80
72509;PMS5003;60532;56.114;40.350;2022-09-09T03:59:05;5.00;2.00;1.00
72509;PMS5003;60532;56.114;40.350;2022-09-09T04:01:09;4.00;1.50;0.50
72509;PMS5003;60532;56.114;40.350;2022-09-09T04:03:11;3.20;3.20;1.20
72509;PMS5003;60532;56.114;40.350;2022-09-09T04:05:11;1.80;1.80;1.00
72509;PMS5003;60532;56.114;40.350;2022-09-09T04:07:12;6.00;2.00;1.50
72509;PMS5003;60532;56.114;40.350;2022-09-09T04:09:13;2.60;2.60;1.00
72509;PMS5003;60532;56.114;40.350;2022-09-09T04:11:14;2.00;2.00;1.00
72509;PMS5003;60532;56.114;40.350;2022-09-09T04:13:15;4.40;4.40;2.00
72509;PMS5003;60532;56.114;40.350;2022-09-09T04:15:17;5.20;4.60;1.80
72509;PMS5003;60532;56.114;40.350;2022-09-09T04:17:18;3.60;3.60;1.80
72509;PMS5003;60532;56.114;40.350;2022-09-09T04:19:19;6.80;4.60;2.00
72509;PMS5003;60532;56.114;40.350;2022-09-09T04:21:20;4.75;1.25;0.00
72509;PMS5003;60532;56.114;40.350;2022-09-09T04:23:21;4.80;4.80;1.40
72509;PMS5003;60532;56.114;40.350;2022-09-09T04:25:21;4.50;4.00;2.00
72509;PMS5003;60532;56.114;40.350;2022-09-09T04:27:22;2.00;2.00;0.00
72509;PMS5003;60532;56.114;40.350;2022-09-09T04:29:22;6.00;4.00;2.00
72509;PMS5003;60532;56.114;40.350;2022-09-09T04:31:23;4.75;4.75;1.50
72509;PMS5003;60532;56.114;40.350;2022-09-09T04:33:24;4.00;4.00;2.00
72509;PMS5003;60532;56.114;40.350;2022-09-09T04:35:27;6.40;4.80;2.00
72509;PMS5003;60532;56.114;40.350;2022-09-09T04:37:28;7.25;4.00;2.00
72509;PMS5003;60532;56.114;40.350;2022-09-09T04:39:28;5.00;3.50;2.00
72509;PMS5003;60532;56.114;40.350;2022-09-09T04:41:29;4.50;4.00;1.75
72509;PMS5003;60532;56.114;40.350;2022-09-09T04:43:31;8.00;4.80;2.00
72509;PMS5003;60532;56.114;40.350;2022-09-09T04:45:32;6.75;5.25;1.00
72509;PMS5003;60532;56.114;40.350;2022-09-09T04:47:33;3.60;3.60;2.00
72509;PMS5003;60532;56.114;40.350;2022-09-09T04:49:36;7.00;4.00;2.00
72509;PMS5003;60532;56.114;40.350;2022-09-09T04:51:36;3.00;3.00;1.50
72509;PMS5003;60532;56.114;40.350;2022-09-09T04:53:37;5.50;3.00;1.50
72509;PMS5003;60532;56.114;40.350;2022-09-09T04:55:38;5.00;5.00;2.00
72509;PMS5003;60532;56.114;40.350;2022-09-09T04:57:39;5.00;5.00;1.40
72509;PMS5003;60532;56.114;40.350;2022-09-09T04:59:39;6.25;5.00;2.00
72509;PMS5003;60532;56.114;40.350;2022-09-09T05:01:40;5.75;5.75;3.00
72509;PMS5003;60532;56.114;40.350;2022-09-09T05:03:40;7.50;7.00;2.00
72509;PMS5003;60532;56.114;40.350;2022-09-09T05:05:41;7.25;6.00;2.00
72509;PMS5003;60532;56.114;40.350;2022-09-09T05:07:42;5.00;5.00;1.75
72509;PMS5003;60532;56.114;40.350;2022-09-09T05:09:43;6.00;5.00;3.00
72509;PMS5003;60532;56.114;40.350;2022-09-09T05:11:45;9.80;7.20;2.00
72509;PMS5003;60532;56.114;40.350;2022-09-09T05:13:46;11.00;6.00;2.00
72509;PMS5003;60532;56.114;40.350;2022-09-09T05:15:53;5.00;5.00;2.00
72509;PMS5003;60532;56.114;40.350;2022-09-09T05:18:02;6.80;5.80;2.00
72509;PMS5003;60532;56.114;40.350;2022-09-09T05:20:03;5.00;3.80;2.00
72509;PMS5003;60532;56.114;40.350;2022-09-09T05:22:04;3.80;3.80;1.00
72509;PMS5003;60532;56.114;40.350;2022-09-09T05:24:05;5.00;3.00;2.25
72509;PMS5003;60532;56.114;40.350;2022-09-09T05:26:06;6.25;6.25;2.00
72509;PMS5003;60532;56.114;40.350;2022-09-09T05:28:07;4.40;3.60;1.40
72509;PMS5003;60532;56.114;40.350;2022-09-09T05:30:08;6.50;5.25;2.00
72509;PMS5003;60532;56.114;40.350;2022-09-09T05:32:09;7.80;6.00;2.20
72509;PMS5003;60532;56.114;40.350;2022-09-09T05:34:10;6.20;5.00;2.00
72509;PMS5003;60532;56.114;40.350;2022-09-09T05:36:14;4.20;2.00;1.20
72509;PMS5003;60532;56.114;40.350;2022-09-09T05:38:16;6.00;3.00;2.00
72509;PMS5003;60532;56.114;40.350;2022-09-09T05:40:18;5.40;5.20;2.80
72509;PMS5003;60532;56.114;40.350;2022-09-09T05:42:18;6.50;6.00;2.00
72509;PMS5003;60532;56.114;40.350;2022-09-09T05:44:19;5.00;3.50;1.25
72509;PMS5003;60532;56.114;40.350;2022-09-09T05:46:20;5.00;5.00;2.00
72509;PMS5003;60532;56.114;40.350;2022-09-09T05:48:21;5.80;5.20;2.80
72509;PMS5003;60532;56.114;40.350;2022-09-09T05:50:21;3.00;3.00;1.75
72509;PMS5003;60532;56.114;40.350;2022-09-09T05:52:22;5.50;5.50;2.00
72509;PMS5003;60532;56.114;40.350;2022-09-09T05:54:23;4.60;4.60;2.00
72509;PMS5003;60532;56.114;40.350;2022-09-09T05:56:25;5.75;5.25;2.00
72509;PMS5003;60532;56.114;40.350;2022-09-09T05:58:25;5.40;5.40;2.00
72509;PMS5003;60532;56.114;40.350;2022-09-09T06:00:26;9.25;6.25;2.50
72509;PMS5003;60532;56.114;40.350;2022-09-09T06:02:26;3.50;3.50;1.00
72509;PMS5003;60532;56.114;40.350;2022-09-09T06:04:27;6.00;6.00;3.00
72509;PMS5003;60532;56.114;40.350;2022-09-09T06:06:32;6.25;3.50;2.00
72509;PMS5003;60532;56.114;40.350;2022-09-09T06:08:37;5.40;5.40;2.00
72509;PMS5003;60532;56.114;40.350;2022-09-09T06:10:38;6.00;6.00;2.60
72509;PMS5003;60532;56.114;40.350;2022-09-09T06:12:39;6.50;6.00;2.00
72509;PMS5003;60532;56.114;40.350;2022-09-09T06:14:40;6.40;5.20;2.00
72509;PMS5003;60532;56.114;40.350;2022-09-09T06:16:40;8.00;6.75;5.00
72509;PMS5003;60532;56.114;40.350;2022-09-09T06:18:44;7.00;7.00;4.00
72509;PMS5003;60532;56.114;40.350;2022-09-09T06:20:54;9.75;8.25;4.00
72509;PMS5003;60532;56.114;40.350;2022-09-09T06:22:55;8.40;8.20;4.00
72509;PMS5003;60532;56.114;40.350;2022-09-09T06:24:56;10.00;8.00;4.00
72509;PMS5003;60532;56.114;40.350;2022-09-09T06:26:56;11.50;9.00;4.00
72509;PMS5003;60532;56.114;40.350;2022-09-09T06:28:57;9.40;6.60;4.00
72509;PMS5003;60532;56.114;40.350;2022-09-09T06:30:59;4.25;4.25;2.00
72509;PMS5003;60532;56.114;40.350;2022-09-09T06:33:00;5.50;5.50;2.00
72509;PMS5003;60532;56.114;40.350;2022-09-09T06:35:01;7.50;6.50;4.00
72509;PMS5003;60532;56.114;40.350;2022-09-09T06:37:01;8.33;6.00;2.00
72509;PMS5003;60532;56.114;40.350;2022-09-09T06:39:02;8.00;7.00;5.00
72509;PMS5003;60532;56.114;40.350;2022-09-09T06:41:03;7.75;6.50;3.75
72509;PMS5003;60532;56.114;40.350;2022-09-09T06:43:05;10.25;7.75;4.50
72509;PMS5003;60532;56.114;40.350;2022-09-09T06:45:06;5.33;4.67;2.67
72509;PMS5003;60532;56.114;40.350;2022-09-09T06:47:07;8.00;7.60;4.80
72509;PMS5003;60532;56.114;40.350;2022-09-09T06:49:08;10.00;8.20;5.60
72509;PMS5003;60532;56.114;40.350;2022-09-09T06:51:10;15.20;13.60;8.00
72509;PMS5003;60532;56.114;40.350;2022-09-09T06:53:16;14.00;13.00;6.00
72509;PMS5003;60532;56.114;40.350;2022-09-09T06:55:16;19.00;16.20;8.00
72509;PMS5003;60532;56.114;40.350;2022-09-09T06:57:17;12.40;11.00;6.40
72509;PMS5003;60532;56.114;40.350;2022-09-09T06:59:18;15.75;12.00;5.50
72509;PMS5003;60532;56.114;40.350;2022-09-09T07:01:19;9.25;9.25;5.00
72509;PMS5003;60532;56.114;40.350;2022-09-09T07:03:20;8.20;7.80;4.00
72509;PMS5003;60532;56.114;40.350;2022-09-09T07:05:21;13.25;12.25;7.50
72509;PMS5003;60532;56.114;40.350;2022-09-09T07:07:21;10.75;10.75;5.75
72509;PMS5003;60532;56.114;40.350;2022-09-09T07:09:23;9.60;7.20;4.00
72509;PMS5003;60532;56.114;40.350;2022-09-09T07:11:25;8.40;5.00;2.80
72509;PMS5003;60532;56.114;40.350;2022-09-09T07:13:27;8.40;6.00;3.80
72509;PMS5003;60532;56.114;40.350;2022-09-09T07:15:27;9.50;9.50;5.00
72509;PMS5003;60532;56.114;40.350;2022-09-09T07:17:28;11.00;9.00;5.00
72509;PMS5003;60532;56.114;40.350;2022-09-09T07:19:29;8.00;8.00;4.80
72509;PMS5003;60532;56.114;40.350;2022-09-09T07:21:30;10.50;8.00;4.50
72509;PMS5003;60532;56.114;40.350;2022-09-09T07:23:31;4.60;3.80;1.00
72509;PMS5003;60532;56.114;40.350;2022-09-09T07:25:31;13.25;8.75;4.00
72509;PMS5003;60532;56.114;40.350;2022-09-09T07:27:31;8.50;7.75;3.50
72509;PMS5003;60532;56.114;40.350;2022-09-09T07:29:32;8.00;7.50;3.50
72509;PMS5003;60532;56.114;40.350;2022-09-09T07:31:34;9.00;7.00;3.25
72509;PMS5003;60532;56.114;40.350;2022-09-09T07:33:35;8.80;8.00;3.60
72509;PMS5003;60532;56.114;40.350;2022-09-09T07:35:35;13.50;11.50;4.00
72509;PMS5003;60532;56.114;40.350;2022-09-09T07:37:37;13.20;8.20;4.00
72509;PMS5003;60532;56.114;40.350;2022-09-09T07:39:37;9.00;8.75;4.00
72509;PMS5003;60532;56.114;40.350;2022-09-09T07:41:42;17.60;10.80;7.60
72509;PMS5003;60532;56.114;40.350;2022-09-09T07:43:44;11.80;11.00;5.20
72509;PMS5003;60532;56.114;40.350;2022-09-09T07:45:44;9.20;8.40;3.40
72509;PMS5003;60532;56.114;40.350;2022-09-09T07:47:45;7.00;6.20;2.60
72509;PMS5003;60532;56.114;40.350;2022-09-09T07:49:46;11.00;9.60;5.20
72509;PMS5003;60532;56.114;40.350;2022-09-09T07:51:48;4.00;1.20;0.60
72509;PMS5003;60532;56.114;40.350;2022-09-09T07:53:53;10.80;8.00;4.20
72509;PMS5003;60532;56.114;40.350;2022-09-09T07:55:54;8.00;8.00;3.00
72509;PMS5003;60532;56.114;40.350;2022-09-09T07:57:55;6.00;6.00;2.40
72509;PMS5003;60532;56.114;40.350;2022-09-09T07:59:56;8.00;7.75;3.75
72509;PMS5003;60532;56.114;40.350;2022-09-09T08:01:57;16.75;10.50;5.00
72509;PMS5003;60532;56.114;40.350;2022-09-09T08:03:59;12.60;11.20;5.80
72509;PMS5003;60532;56.114;40.350;2022-09-09T08:06:02;18.20;15.80;6.40
72509;PMS5003;60532;56.114;40.350;2022-09-09T08:08:03;15.80;15.40;7.00
72509;PMS5003;60532;56.114;40.350;2022-09-09T08:10:04;21.00;14.40;7.00
72509;PMS5003;60532;56.114;40.350;2022-09-09T08:12:05;16.40;12.40;7.40
72509;PMS5003;60532;56.114;40.350;2022-09-09T08:14:07;14.60;14.60;10.00
72509;PMS5003;60532;56.114;40.350;2022-09-09T08:16:09;19.60;15.60;8.80
72509;PMS5003;60532;56.114;40.350;2022-09-09T08:18:10;15.00;14.20;7.00
72509;PMS5003;60532;56.114;40.350;2022-09-09T08:20:10;18.25;16.25;9.00
72509;PMS5003;60532;56.114;40.350;2022-09-09T08:22:11;26.25;19.25;10.50
72509;PMS5003;60532;56.114;40.350;2022-09-09T08:24:12;22.25;20.25;10.50
72509;PMS5003;60532;56.114;40.350;2022-09-09T08:26:15;22.60;20.40;7.80
72509;PMS5003;60532;56.114;40.350;2022-09-09T08:28:15;20.80;19.60;10.20
72509;PMS5003;60532;56.114;40.350;2022-09-09T08:30:16;23.50;17.50;11.75
72509;PMS5003;60532;56.114;40.350;2022-09-09T08:32:16;22.00;16.75;7.50
72509;PMS5003;60532;56.114;40.350;2022-09-09T08:34:19;24.20;22.80;11.00
72509;PMS5003;60532;56.114;40.350;2022-09-09T08:36:21;35.00;30.00;17.00
72509;PMS5003;60532;56.114;40.350;2022-09-09T08:38:21;29.20;25.60;14.20
72509;PMS5003;60532;56.114;40.350;2022-09-09T08:40:22;23.00;20.75;11.50
72509;PMS5003;60532;56.114;40.350;2022-09-09T08:48:58;49.40;42.20;25.00
72509;PMS5003;60532;56.114;40.350;2022-09-09T08:51:02;47.00;40.20;21.00
72509;PMS5003;60532;56.114;40.350;2022-09-09T08:53:04;44.00;37.40;24.20
72509;PMS5003;60532;56.114;40.350;2022-09-09T08:57:19;45.60;37.60;16.60
72509;PMS5003;60532;56.114;40.350;2022-09-09T08:59:20;40.60;35.80;18.40
72509;PMS5003;60532;56.114;40.350;2022-09-09T09:03:35;42.40;38.40;23.80
72509;PMS5003;60532;56.114;40.350;2022-09-09T09:05:40;35.60;27.60;15.00
72509;PMS5003;60532;56.114;40.350;2022-09-09T09:12:10;71.20;54.40;29.40
72509;PMS5003;60532;56.114;40.350;2022-09-09T09:14:32;75.40;52.60;30.40
72509;PMS5003;60532;56.114;40.350;2022-09-09T09:16:34;69.80;54.40;29.80
72509;PMS5003;60532;56.114;40.350;2022-09-09T09:18:38;71.20;49.20;29.40
72509;PMS5003;60532;56.114;40.350;2022-09-09T09:22:42;78.67;59.33;35.00
72509;PMS5003;60532;56.114;40.350;2022-09-09T09:24:54;76.75;57.50;30.50
72509;PMS5003;60532;56.114;40.350;2022-09-09T09:26:55;80.50;62.50;34.75
72509;PMS5003;60532;56.114;40.350;2022-09-09T09:28:55;72.00;56.33;35.33
72509;PMS5003;60532;56.114;40.350;2022-09-09T09:31:04;67.00;54.00;29.00
72509;PMS5003;60532;56.114;40.350;2022-09-09T09:33:08;65.20;50.40;27.60
72509;PMS5003;60532;56.114;40.350;2022-09-09T09:35:14;68.00;54.20;30.20
72509;PMS5003;60532;56.114;40.350;2022-09-09T09:37:20;69.75;54.00;28.75
72509;PMS5003;60532;56.114;40.350;2022-09-09T09:39:31;48.00;40.20;26.00
72509;PMS5003;60532;56.114;40.350;2022-09-09T09:41:41;62.00;50.20;26.20
72509;PMS5003;60532;56.114;40.350;2022-09-09T09:43:52;54.40;35.60;16.60
72509;PMS5003;60532;56.114;40.350;2022-09-09T09:45:54;44.40;35.40;13.80
72509;PMS5003;60532;56.114;40.350;2022-09-09T09:47:59;45.20;37.20;20.00
72509;PMS5003;60532;56.114;40.350;2022-09-09T09:50:00;54.20;40.60;20.00
72509;PMS5003;60532;56.114;40.350;2022-09-09T09:52:02;42.60;37.20;16.80
72509;PMS5003;60532;56.114;40.350;2022-09-09T09:56:13;33.40;23.80;16.00
72509;PMS5003;60532;56.114;40.350;2022-09-09T09:58:15;58.40;43.60;23.20
72509;PMS5003;60532;56.114;40.350;2022-09-09T10:00:19;46.00;37.60;18.00
72509;PMS5003;60532;56.114;40.350;2022-09-09T10:02:22;60.00;46.40;22.40
72509;PMS5003;60532;56.114;40.350;2022-09-09T10:04:26;47.40;41.20;21.80
72509;PMS5003;60532;56.114;40.350;2022-09-09T10:06:33;72.25;51.50;28.75
72509;PMS5003;60532;56.114;40.350;2022-09-09T10:08:43;65.80;47.80;25.00
72509;PMS5003;60532;56.114;40.350;2022-09-09T10:11:12;64.20;50.80;27.00
72509;PMS5003;60532;56.114;40.350;2022-09-09T10:13:27;58.60;43.60;23.00
72509;PMS5003;60532;56.114;40.350;2022-09-09T10:15:31;59.20;45.80;23.60
72509;PMS5003;60532;56.114;40.350;2022-09-09T10:17:54;45.60;38.00;22.00
72509;PMS5003;60532;56.114;40.350;2022-09-09T10:26:15;51.00;42.00;20.80
72509;PMS5003;60532;56.114;40.350;2022-09-09T10:32:37;58.80;44.60;24.20
72509;PMS5003;60532;56.114;40.350;2022-09-09T10:36:46;62.00;44.60;18.20
72509;PMS5003;60532;56.114;40.350;2022-09-09T10:38:59;36.60;35.40;24.00
72509;PMS5003;60532;56.114;40.350;2022-09-09T10:41:09;58.80;42.20;18.60
72509;PMS5003;60532;56.114;40.350;2022-09-09T10:45:32;68.20;47.80;25.00
72509;PMS5003;60532;56.114;40.350;2022-09-09T10:50:02;54.00;43.00;20.00
72509;PMS5003;60532;56.114;40.350;2022-09-09T10:56:50;51.20;41.20;20.80
72509;PMS5003;60532;56.114;40.350;2022-09-09T10:59:11;59.20;45.80;22.00
72509;PMS5003;60532;56.114;40.350;2022-09-09T11:01:15;66.80;49.40;27.40
72509;PMS5003;60532;56.114;40.350;2022-09-09T11:03:27;68.20;47.80;26.80
72509;PMS5003;60532;56.114;40.350;2022-09-09T11:09:39;69.00;51.60;27.20
72509;PMS5003;60532;56.114;40.350;2022-09-09T11:11:44;63.80;45.60;24.80
72509;PMS5003;60532;56.114;40.350;2022-09-09T11:13:54;64.80;48.20;25.00
72509;PMS5003;60532;56.114;40.350;2022-09-09T11:15:58;47.20;40.60;19.80
72509;PMS5003;60532;56.114;40.350;2022-09-09T11:18:01;59.60;45.20;22.60
72509;PMS5003;60532;56.114;40.350;2022-09-09T11:20:04;57.40;43.60;21.00
72509;PMS5003;60532;56.114;40.350;2022-09-09T11:22:27;67.00;47.80;25.40
72509;PMS5003;60532;56.114;40.350;2022-09-09T11:26:41;54.60;40.80;19.80
72509;PMS5003;60532;56.114;40.350;2022-09-09T11:42:04;47.20;38.20;18.60
72509;PMS5003;60532;56.114;40.350;2022-09-09T11:44:10;40.00;31.80;15.40
72509;PMS5003;60532;56.114;40.350;2022-09-09T11:46:12;44.60;38.60;14.80
72509;PMS5003;60532;56.114;40.350;2022-09-09T11:48:25;48.80;38.00;16.00
72509;PMS5003;60532;56.114;40.350;2022-09-09T11:50:30;56.60;45.20;21.20
72509;PMS5003;60532;56.114;40.350;2022-09-09T11:54:44;34.20;30.00;12.00
72509;PMS5003;60532;56.114;40.350;2022-09-09T11:56:46;38.40;30.00;14.40
72509;PMS5003;60532;56.114;40.350;2022-09-09T11:58:54;55.60;37.80;19.20
72509;PMS5003;60532;56.114;40.350;2022-09-09T12:00:56;55.80;42.40;20.20
72509;PMS5003;60532;56.114;40.350;2022-09-09T12:02:56;39.75;36.25;18.75
72509;PMS5003;60532;56.114;40.350;2022-09-09T12:05:07;38.00;31.25;10.50
72509;PMS5003;60532;56.114;40.350;2022-09-09T12:09:13;58.50;46.50;22.00
72509;PMS5003;60532;56.114;40.350;2022-09-09T12:11:27;45.20;40.60;17.40
72509;PMS5003;60532;56.114;40.350;2022-09-09T12:13:28;40.40;32.00;12.00
72509;PMS5003;60532;56.114;40.350;2022-09-09T12:15:28;35.50;28.25;12.00
72509;PMS5003;60532;56.114;40.350;2022-09-09T12:17:30;28.50;20.50;7.00
72509;PMS5003;60532;56.114;40.350;2022-09-09T12:19:30;31.00;23.80;8.00
72509;PMS5003;60532;56.114;40.350;2022-09-09T12:25:57;28.20;25.40;11.80
72509;PMS5003;60532;56.114;40.350;2022-09-09T12:28:05;36.20;31.60;14.60
72509;PMS5003;60532;56.114;40.350;2022-09-09T12:30:10;38.40;32.00;16.00
72509;PMS5003;60532;56.114;40.350;2022-09-09T12:32:13;38.80;28.20;12.80
72509;PMS5003;60532;56.114;40.350;2022-09-09T12:36:36;31.40;26.60;12.00
72509;PMS5003;60532;56.114;40.350;2022-09-09T12:38:38;34.40;30.00;16.20
72509;PMS5003;60532;56.114;40.350;2022-09-09T12:40:39;24.20;21.20;9.60
72509;PMS5003;60532;56.114;40.350;2022-09-09T12:42:40;29.25;27.75;12.75
72509;PMS5003;60532;56.114;40.350;2022-09-09T12:44:49;20.25;16.25;7.00
72509;PMS5003;60532;56.114;40.350;2022-09-09T12:46:50;32.00;29.60;12.20
72509;PMS5003;60532;56.114;40.350;2022-09-09T12:48:51;14.80;12.20;3.00
72509;PMS5003;60532;56.114;40.350;2022-09-09T12:50:53;26.20;18.60;9.00
72509;PMS5003;60532;56.114;40.350;2022-09-09T12:53:00;42.00;34.80;14.60
72509;PMS5003;60532;56.114;40.350;2022-09-09T12:55:02;52.00;32.60;17.00
72509;PMS5003;60532;56.114;40.350;2022-09-09T12:57:04;34.20;27.00;10.00
72509;PMS5003;60532;56.114;40.350;2022-09-09T12:59:05;40.40;37.00;14.00
72509;PMS5003;60532;56.114;40.350;2022-09-09T13:01:05;24.50;20.25;8.50
72509;PMS5003;60532;56.114;40.350;2022-09-09T13:03:27;35.25;30.00;11.50
72509;PMS5003;60532;56.114;40.350;2022-09-09T13:05:37;22.00;21.20;8.40
72509;PMS5003;60532;56.114;40.350;2022-09-09T13:07:37;29.40;24.40;10.00
72509;PMS5003;60532;56.114;40.350;2022-09-09T13:09:38;19.25;15.25;8.00
72509;PMS5003;60532;56.114;40.350;2022-09-09T13:11:40;25.50;21.75;10.75
72509;PMS5003;60532;56.114;40.350;2022-09-09T13:13:42;29.40;29.40;11.80
72509;PMS5003;60532;56.114;40.350;2022-09-09T13:15:53;26.40;22.20;9.00
72509;PMS5003;60532;56.114;40.350;2022-09-09T13:17:54;20.00;18.60;7.80
72509;PMS5003;60532;56.114;40.350;2022-09-09T13:19:56;38.60;37.00;14.80
72509;PMS5003;60532;56.114;40.350;2022-09-09T13:21:57;46.20;37.40;15.40
72509;PMS5003;60532;56.114;40.350;2022-09-09T13:23:57;31.25;25.75;12.50
72509;PMS5003;60532;56.114;40.350;2022-09-09T13:26:06;25.40;19.40;8.80
72509;PMS5003;60532;56.114;40.350;2022-09-09T13:28:22;19.40;15.00;2.00
72509;PMS5003;60532;56.114;40.350;2022-09-09T13:32:26;38.80;30.00;15.80
72509;PMS5003;60532;56.114;40.350;2022-09-09T13:34:31;43.50;36.75;18.75
72509;PMS5003;60532;56.114;40.350;2022-09-09T13:36:33;38.00;31.40;12.00
72509;PMS5003;60532;56.114;40.350;2022-09-09T13:38:53;39.80;36.20;17.80
72509;PMS5003;60532;56.114;40.350;2022-09-09T13:40:55;39.00;34.80;14.40